createdAt,value
2023-03-22T00:01:30.446Z,33.47
2023-03-22T00:03:58.261Z,28.13
2023-03-22T00:06:26.079Z,34.95
2023-03-22T00:08:54.492Z,36.67
2023-03-22T00:11:24.955Z,33.08
2023-03-22T00:13:53.106Z,36.45
2023-03-22T00:16:21.240Z,38.72
2023-03-22T00:18:48.648Z,30.13
2023-03-22T00:21:16.876Z,33.05
2023-03-22T00:23:44.887Z,33.92
2023-03-22T00:26:13.421Z,35.17
2023-03-22T00:28:41.824Z,34.00
2023-03-22T00:31:10.383Z,35.75
2023-03-22T00:33:37.621Z,45.33
2023-03-22T00:36:08.981Z,34.65
2023-03-22T00:38:42.652Z,35.65
2023-03-22T00:41:15.933Z,33.47
2023-03-22T00:43:46.179Z,32.55
2023-03-22T00:46:15.516Z,34.72
2023-03-22T00:48:43.361Z,33.88
2023-03-22T00:51:11.526Z,36.85
2023-03-22T00:53:42.850Z,35.80
2023-03-22T00:56:15.375Z,35.00
2023-03-22T00:58:46.415Z,39.63
2023-03-22T01:01:14.588Z,40.75
2023-03-22T01:03:43.801Z,36.33
2023-03-22T01:06:14.860Z,32.40
2023-03-22T01:08:42.518Z,39.05
2023-03-22T01:11:10.455Z,45.95
2023-03-22T01:13:38.174Z,37.67
2023-03-22T01:16:07.145Z,37.95
2023-03-22T01:18:35.653Z,35.00
2023-03-22T01:21:03.425Z,34.72
2023-03-22T01:23:31.295Z,41.63
2023-03-22T01:25:59.624Z,35.85
2023-03-22T01:28:28.467Z,35.20
2023-03-22T01:30:56.318Z,34.88
2023-03-22T01:33:23.590Z,37.53
2023-03-22T01:35:52.042Z,38.50
2023-03-22T01:38:21.114Z,38.28
2023-03-22T01:40:53.776Z,43.05
2023-03-22T01:43:21.718Z,35.63
2023-03-22T01:45:53.849Z,34.40
2023-03-22T01:48:26.634Z,30.77
2023-03-22T01:51:09.303Z,35.70
2023-03-22T01:53:59.848Z,45.72
2023-03-22T01:56:32.144Z,36.95
2023-03-22T01:59:00.509Z,38.13
2023-03-22T02:01:37.366Z,31.23
2023-03-22T02:04:19.479Z,39.15
2023-03-22T02:06:47.887Z,38.88
2023-03-22T02:09:21.397Z,46.72
2023-03-22T02:11:54.723Z,35.20
2023-03-22T02:15:21.744Z,33.30
2023-03-22T02:18:49.985Z,30.38
2023-03-22T02:22:04.058Z,32.63
2023-03-22T02:24:55.015Z,37.42
2023-03-22T02:27:50.738Z,36.80
2023-03-22T02:30:58.294Z,35.78
2023-03-22T02:33:58.998Z,41.17
2023-03-22T02:36:34.092Z,40.83
2023-03-22T02:39:39.392Z,44.38
2023-03-22T02:42:31.069Z,32.67
2023-03-22T02:45:34.310Z,32.05
2023-03-22T02:48:11.092Z,43.63
2023-03-22T02:50:44.076Z,32.60
2023-03-22T02:53:26.709Z,36.08
2023-03-22T02:57:00.555Z,38.90
2023-03-22T02:59:31.254Z,32.15
2023-03-22T03:02:02.484Z,30.60
2023-03-22T03:04:35.637Z,36.75
2023-03-22T03:07:08.906Z,33.10
2023-03-22T03:09:38.678Z,32.30
2023-03-22T03:12:18.939Z,35.22
2023-03-22T03:17:24.423Z,37.40
2023-03-22T03:20:10.581Z,38.95
2023-03-22T03:22:59.693Z,36.50
2023-03-22T03:25:45.761Z,39.95
2023-03-22T03:29:23.225Z,33.03
2023-03-22T03:32:25.069Z,31.55
2023-03-22T03:35:06.872Z,28.55
2023-03-22T03:37:40.761Z,24.73
2023-03-22T03:40:15.723Z,26.63
2023-03-22T03:42:53.351Z,27.60
2023-03-22T03:45:21.597Z,22.35
2023-03-22T03:47:56.395Z,26.90
2023-03-22T03:50:26.071Z,24.38
2023-03-22T03:52:55.504Z,24.10
2023-03-22T03:55:24.113Z,27.05
2023-03-22T03:57:51.499Z,29.70
2023-03-22T04:00:19.330Z,23.25
2023-03-22T04:03:18.676Z,21.95
2023-03-22T04:06:05.030Z,19.13
2023-03-22T04:08:36.792Z,20.05
2023-03-22T04:11:04.513Z,23.60
2023-03-22T04:13:32.309Z,21.13
2023-03-22T04:16:03.344Z,19.00
2023-03-22T04:18:35.029Z,24.42
2023-03-22T04:21:07.766Z,21.95
2023-03-22T04:23:46.098Z,20.98
2023-03-22T04:26:13.680Z,16.45
2023-03-22T04:28:52.952Z,17.40
2023-03-22T04:31:20.413Z,20.13
2023-03-22T04:33:54.824Z,18.55
2023-03-22T04:36:38.929Z,15.70
2023-03-22T04:39:35.583Z,18.95
2023-03-22T04:42:29.033Z,17.60
2023-03-22T04:45:19.060Z,16.88
2023-03-22T04:47:53.563Z,19.73
2023-03-22T04:50:21.124Z,22.15
2023-03-22T04:52:52.637Z,17.08
2023-03-22T04:55:20.227Z,19.30
2023-03-22T04:57:47.543Z,16.15
2023-03-22T05:00:16.625Z,16.73
2023-03-22T05:02:44.400Z,15.35
2023-03-22T05:05:21.704Z,17.27
2023-03-22T05:07:50.587Z,19.48
2023-03-22T05:10:18.933Z,20.30
2023-03-22T05:12:46.562Z,16.45
2023-03-22T05:15:23.986Z,31.35
2023-03-22T05:17:52.916Z,20.17
2023-03-22T05:20:20.460Z,19.13
2023-03-22T05:22:56.344Z,12.73
2023-03-22T05:25:25.836Z,11.82
2023-03-22T05:27:53.741Z,11.75
2023-03-22T05:30:35.149Z,11.32
2023-03-22T05:33:09.608Z,7.50
2023-03-22T05:35:42.921Z,6.78
2023-03-22T05:38:11.055Z,5.85
2023-03-22T05:40:44.178Z,6.00
2023-03-22T05:43:11.735Z,10.00
2023-03-22T05:45:45.142Z,9.85
2023-03-22T05:48:29.632Z,7.43
2023-03-22T05:50:56.894Z,9.25
2023-03-22T05:53:24.224Z,16.48
2023-03-22T05:56:00.180Z,20.10
2023-03-22T05:58:31.170Z,11.00
2023-03-22T06:01:10.956Z,13.07
2023-03-22T06:03:47.994Z,10.85
2023-03-22T06:06:47.522Z,9.93
2023-03-22T06:09:30.877Z,7.18
2023-03-22T06:11:59.115Z,6.85
2023-03-22T06:14:26.282Z,9.85
2023-03-22T06:17:05.290Z,9.20
2023-03-22T06:19:32.689Z,11.55
2023-03-22T06:22:02.943Z,40.72
2023-03-22T06:24:32.179Z,35.08
2023-03-22T06:26:59.957Z,56.17
2023-03-22T06:29:28.589Z,56.55
2023-03-22T06:31:58.771Z,26.90
2023-03-22T06:34:26.579Z,20.17
2023-03-22T06:36:53.951Z,12.90
2023-03-22T06:39:28.408Z,9.10
2023-03-22T06:41:55.577Z,7.93
2023-03-22T06:44:23.525Z,16.33
2023-03-22T06:46:51.099Z,12.60
2023-03-22T06:49:33.370Z,13.57
2023-03-22T06:52:01.116Z,18.70
2023-03-22T06:54:28.752Z,16.23
2023-03-22T06:56:55.938Z,15.07
2023-03-22T06:59:24.712Z,17.93
2023-03-22T07:01:52.214Z,22.15
2023-03-22T07:04:19.912Z,14.48
2023-03-22T07:06:48.517Z,11.98
2023-03-22T07:09:16.328Z,11.88
2023-03-22T07:11:45.946Z,7.60
2023-03-22T07:14:13.148Z,8.57
2023-03-22T07:17:18.774Z,13.00
2023-03-22T07:19:46.544Z,22.42
2023-03-22T07:22:14.921Z,20.50
2023-03-22T07:24:55.757Z,21.13
2023-03-22T07:27:25.898Z,15.07
2023-03-22T07:29:53.708Z,11.57
2023-03-22T07:32:21.145Z,10.02
2023-03-22T07:35:03.209Z,6.85
2023-03-22T07:37:30.734Z,8.45
2023-03-22T07:39:58.368Z,9.02
2023-03-22T07:42:30.635Z,7.05
2023-03-22T07:45:36.316Z,8.15
2023-03-22T07:48:36.477Z,6.75
2023-03-22T07:51:30.104Z,6.65
2023-03-22T07:53:58.520Z,9.40
2023-03-22T07:56:25.819Z,9.80
2023-03-22T07:58:53.641Z,11.77
2023-03-22T08:01:20.992Z,9.20
2023-03-22T08:04:07.923Z,17.38
2023-03-22T08:06:58.064Z,20.73
2023-03-22T08:09:26.214Z,19.75
2023-03-22T08:11:53.505Z,17.83
2023-03-22T08:14:30.596Z,11.95
2023-03-22T08:17:01.881Z,14.15
2023-03-22T08:19:29.230Z,78.53
2023-03-22T08:21:56.437Z,47.38
2023-03-22T08:24:42.159Z,42.63
2023-03-22T08:27:15.673Z,21.02
2023-03-22T08:29:47.928Z,15.68
2023-03-22T08:32:16.411Z,16.73
2023-03-22T08:34:44.098Z,14.68
2023-03-22T08:37:12.173Z,9.40
2023-03-22T08:39:40.208Z,6.95
2023-03-22T08:42:16.248Z,6.35
2023-03-22T08:44:43.714Z,5.13
2023-03-22T08:47:10.912Z,7.10
2023-03-22T08:49:38.936Z,5.13
2023-03-22T08:52:13.602Z,4.55
2023-03-22T08:55:01.287Z,7.15
2023-03-22T08:57:51.385Z,7.40
2023-03-22T09:00:48.585Z,7.13
2023-03-22T09:03:26.029Z,7.38
2023-03-22T09:05:53.680Z,8.25
2023-03-22T09:08:20.999Z,7.40
2023-03-22T09:10:54.329Z,10.60
2023-03-22T09:13:23.006Z,8.98
2023-03-22T09:15:56.170Z,9.20
2023-03-22T09:18:26.912Z,8.75
2023-03-22T09:20:57.256Z,13.52
2023-03-22T09:23:31.574Z,10.45
2023-03-22T09:26:02.872Z,7.60
2023-03-22T09:28:31.965Z,6.13
2023-03-22T09:31:06.638Z,6.85
2023-03-22T09:33:38.067Z,5.65
2023-03-22T09:36:06.527Z,5.70
2023-03-22T09:38:35.244Z,6.68
2023-03-22T09:41:06.857Z,6.67
2023-03-22T09:43:43.147Z,5.90
2023-03-22T09:46:45.379Z,6.38
2023-03-22T09:49:28.574Z,6.10
2023-03-22T09:51:56.310Z,4.85
2023-03-22T09:54:35.501Z,5.30
2023-03-22T10:00:31.768Z,7.15
2023-03-22T10:03:40.712Z,9.82
2023-03-22T10:06:16.210Z,6.57
2023-03-22T10:09:01.349Z,5.10
2023-03-22T10:11:45.783Z,4.50
2023-03-22T10:14:31.277Z,6.75
2023-03-22T10:17:05.016Z,3.42
2023-03-22T10:19:59.966Z,4.03
2023-03-22T10:22:34.115Z,3.78
2023-03-22T10:25:01.892Z,3.92
2023-03-22T10:27:31.072Z,4.80
2023-03-22T10:30:33.592Z,3.78
2023-03-22T10:33:10.925Z,3.80
2023-03-22T10:35:38.222Z,4.35
2023-03-22T10:38:08.878Z,4.65
2023-03-22T10:40:39.867Z,4.30
2023-03-22T10:43:35.032Z,5.40
2023-03-22T10:46:07.123Z,3.50
2023-03-22T10:48:41.999Z,4.90
2023-03-22T10:51:24.915Z,4.18
2023-03-22T10:53:54.965Z,4.40
2023-03-22T10:56:22.247Z,3.60
2023-03-22T10:58:50.790Z,2.95
2023-03-22T11:01:31.919Z,2.28
2023-03-22T11:04:12.264Z,3.30
2023-03-22T11:06:50.629Z,3.65
2023-03-22T11:09:23.863Z,4.00
2023-03-22T11:11:57.751Z,4.32
2023-03-22T11:14:36.207Z,3.83
2023-03-22T11:17:06.028Z,4.03
2023-03-22T11:19:49.673Z,3.97
2023-03-22T11:22:42.801Z,3.38
2023-03-22T11:25:26.654Z,3.70
2023-03-22T11:28:27.801Z,3.53
2023-03-22T11:31:10.410Z,3.70
2023-03-22T11:33:44.025Z,4.00
2023-03-22T11:36:18.665Z,3.10
2023-03-22T11:38:47.445Z,3.03
2023-03-22T11:41:23.879Z,3.20
2023-03-22T11:44:00.003Z,3.30
2023-03-22T11:46:29.083Z,3.97
2023-03-22T11:49:05.258Z,4.40
2023-03-22T11:51:36.882Z,4.35
2023-03-22T11:54:34.505Z,5.38
2023-03-22T11:57:08.935Z,4.28
2023-03-22T12:00:00.197Z,4.40
2023-03-22T12:02:31.182Z,4.50
2023-03-22T12:05:26.917Z,3.35
2023-03-22T12:08:21.321Z,3.83
2023-03-22T12:10:57.090Z,4.47
2023-03-22T12:13:34.114Z,3.97
2023-03-22T12:16:06.109Z,3.03
2023-03-22T12:18:39.217Z,3.47
2023-03-22T12:21:09.561Z,2.53
2023-03-22T12:23:37.391Z,3.42
2023-03-22T12:26:27.417Z,3.70
2023-03-22T12:29:17.752Z,3.00
2023-03-22T12:32:07.852Z,3.40
2023-03-22T12:34:46.142Z,5.32
2023-03-22T12:37:23.710Z,3.63
2023-03-22T12:40:05.503Z,3.10
2023-03-22T12:42:54.146Z,3.05
2023-03-22T12:45:28.668Z,3.30
2023-03-22T12:48:18.052Z,3.30
2023-03-22T12:50:57.492Z,2.58
